Time;durP1;ratioP1;P1;durP2;ratioP2;P2;SDS_P1;SDS_P2;PMS_P1;PMS_P2;Temp;Humidity;BMP_temperature;BMP_pressure;BME280_temperature;BME280_humidity;BME280_pressure;Samples;Min_cycle;Max_cycle;Signal;HPM_P1;HPM_P2
2022/10/09 00:02:12;;;;;;;13.18;5.75;;;;;;;8.11;76.94;101379.25;10100697;29;20051;-79
2022/10/09 00:07:15;;;;;;;11.80;5.82;;;;;;;8.01;76.70;101376.22;10097306;29;20049;-79
2022/10/09 00:12:19;;;;;;;;;;;;;;;7.52;78.24;101377.97;10094027;29;20054;-79
2022/10/09 00:17:22;;;;;;;11.25;6.03;;;;;;;7.71;78.23;101374.25;10099260;29;19990;-79
2022/10/09 00:22:24;;;;;;;;;;;;;;;7.46;78.72;101380.03;10101508;29;20115;-80
2022/10/09 00:27:28;;;;;;;11.55;6.25;;;;;;;7.53;78.88;101380.56;10128135;29;19915;-80
2022/10/09 00:32:31;;;;;;;15.23;7.40;;;;;;;7.60;78.97;101384.66;10116529;29;20048;-79
2022/10/09 00:37:34;;;;;;;;;;;;;;;7.70;78.43;101385.00;10094139;29;20124;-79
2022/10/09 00:42:38;;;;;;;10.57;7.13;;;;;;;7.80;77.91;101382.72;10093767;29;20026;-80
2022/10/09 00:47:45;;;;;;;13.68;6.65;;;;;;;7.76;76.86;101391.84;10093340;29;20341;-79
2022/10/09 00:52:52;;;;;;;9.23;5.28;;;;;;;7.35;75.90;101389.53;10097982;29;20076;-78
2022/10/09 00:57:59;;;;;;;13.65;6.57;;;;;;;7.15;75.91;101404.78;10108233;29;20086;-80
2022/10/09 01:03:01;;;;;;;13.85;8.15;;;;;;;6.94;76.59;101397.84;10094420;29;20057;-79
2022/10/09 01:08:09;;;;;;;23.98;9.18;;;;;;;6.89;76.66;101407.91;10098895;29;20594;-79
2022/10/09 01:13:22;;;;;;;19.23;8.60;;;;;;;6.75;76.39;101412.09;10096380;29;20117;-79
2022/10/09 01:18:32;;;;;;;14.43;9.07;;;;;;;6.72;76.40;101406.00;10098454;29;20057;-79
2022/10/09 01:23:51;;;;;;;14.75;8.00;;;;;;;6.70;76.52;101413.25;10080287;29;20062;-79
2022/10/09 01:29:00;;;;;;;20.58;7.75;;;;;;;6.71;76.29;101409.63;10104179;29;20175;-79
2022/10/09 01:34:03;;;;;;;13.13;7.97;;;;;;;6.67;76.05;101403.56;10105861;29;20051;-79
2022/10/09 01:39:10;;;;;;;18.25;7.93;;;;;;;6.53;76.11;101401.56;10096750;29;20053;-79
2022/10/09 01:44:18;;;;;;;17.55;7.82;;;;;;;6.44;76.42;101395.78;10097197;29;20053;-78
2022/10/09 01:49:34;;;;;;;15.20;7.53;;;;;;;6.49;76.56;101393.78;10101338;29;20053;-79
2022/10/09 01:54:45;;;;;;;11.40;6.60;;;;;;;6.48;75.94;101392.06;10100016;29;20052;-78
2022/10/09 01:59:52;;;;;;;11.27;6.70;;;;;;;6.48;76.14;101387.56;10109672;29;20048;-78
2022/10/09 02:04:55;;;;;;;12.48;7.30;;;;;;;6.50;75.71;101393.72;10112477;29;20161;-79
2022/10/09 02:10:00;;;;;;;12.45;7.60;;;;;;;6.43;75.60;101394.94;10106263;29;20478;-78
2022/10/09 02:15:05;;;;;;;10.63;7.25;;;;;;;6.31;75.89;101393.72;10101532;29;20055;-78
2022/10/09 02:20:13;;;;;;;13.10;8.02;;;;;;;6.29;76.11;101392.06;10096344;29;20627;-78
2022/10/09 02:25:18;;;;;;;13.05;7.65;;;;;;;6.23;76.49;101392.34;10087847;29;20048;-79
2022/10/09 02:30:26;;;;;;;16.23;7.65;;;;;;;6.23;76.89;101392.34;10096444;29;20533;-79
2022/10/09 02:35:29;;;;;;;15.13;8.10;;;;;;;6.24;76.78;101392.28;10099716;29;20065;-80
2022/10/09 02:40:32;;;;;;;19.30;7.43;;;;;;;6.16;76.95;101386.44;10104155;29;20057;-78
2022/10/09 02:45:36;;;;;;;11.00;6.93;;;;;;;6.20;77.07;101382.69;10100651;29;20064;-78
2022/10/09 02:50:39;;;;;;;10.45;7.50;;;;;;;6.21;77.33;101371.06;10096918;29;20125;-78
2022/10/09 02:55:42;;;;;;;10.13;7.35;;;;;;;6.25;77.00;101371.78;10093517;29;20052;-79
2022/10/09 03:00:49;;;;;;;12.80;6.78;;;;;;;6.21;76.66;101384.41;10094318;29;20065;-79
2022/10/09 03:05:59;;;;;;;14.27;6.72;;;;;;;6.21;76.74;101388.88;10097879;29;20104;-78
2022/10/09 03:11:02;;;;;;;10.07;6.47;;;;;;;6.18;76.23;101390.75;10091594;29;21251;-80
2022/10/09 03:16:08;;;;;;;9.25;7.25;;;;;;;6.12;76.30;101382.19;10093229;29;20056;-78
2022/10/09 03:21:14;;;;;;;9.25;6.88;;;;;;;6.06;76.54;101387.78;10115363;29;20113;-78
2022/10/09 03:26:19;;;;;;;10.18;7.53;;;;;;;5.91;77.12;101382.22;10082736;29;20053;-79
2022/10/09 03:31:26;;;;;;;15.32;7.90;;;;;;;5.80;77.94;101395.19;10100341;29;20048;-78
2022/10/09 03:36:49;;;;;;;18.90;7.85;;;;;;;5.78;78.26;101398.84;10085894;29;20056;-78
2022/10/09 03:41:51;;;;;;;15.30;8.50;;;;;;;5.79;78.18;101400.56;10085005;29;20108;-79
2022/10/09 03:46:56;;;;;;;16.58;8.32;;;;;;;5.78;78.39;101405.03;10091232;29;20136;-79
2022/10/09 03:51:58;;;;;;;12.50;7.85;;;;;;;5.81;78.16;101406.69;10098427;29;20097;-78
2022/10/09 03:57:01;;;;;;;13.05;8.00;;;;;;;5.81;78.52;101401.38;10102777;29;21068;-78
2022/10/09 04:02:05;;;;;;;14.75;9.02;;;;;;;5.79;78.48;101404.13;10103973;29;20062;-78
2022/10/09 04:07:08;;;;;;;17.98;7.97;;;;;;;5.73;78.38;101409.72;10096197;29;20053;-78
2022/10/09 04:12:11;;;;;;;14.45;9.10;;;;;;;5.69;78.61;101408.13;10090373;29;20155;-78
2022/10/09 04:17:15;;;;;;;;;;;;;;;5.76;78.68;101396.28;10116855;29;20056;-79
2022/10/09 04:22:18;;;;;;;14.32;8.63;;;;;;;5.70;78.17;101405.41;10093993;29;19927;-78
2022/10/09 04:27:20;;;;;;;13.98;7.78;;;;;;;5.61;78.10;101400.47;10096366;29;20091;-78
2022/10/09 04:32:24;;;;;;;12.40;8.00;;;;;;;5.64;78.17;101396.78;10089834;29;20059;-78
2022/10/09 04:37:27;;;;;;;15.27;9.05;;;;;;;5.68;77.97;101401.94;10096524;29;21217;-79
2022/10/09 04:42:30;;;;;;;12.88;7.65;;;;;;;5.63;77.30;101395.94;10089878;29;20068;-78
2022/10/09 04:47:35;;;;;;;12.57;7.47;;;;;;;5.61;77.43;101399.59;10100532;29;20151;-78
2022/10/09 04:52:38;;;;;;;17.85;8.43;;;;;;;5.59;77.41;101393.47;10096277;29;20057;-78
2022/10/09 04:57:41;;;;;;;13.32;8.55;;;;;;;5.60;77.16;101389.88;10100390;29;20055;-78
2022/10/09 05:02:45;;;;;;;17.38;8.68;;;;;;;5.56;77.26;101390.94;10099657;29;20048;-78
2022/10/09 05:07:48;;;;;;;14.75;8.90;;;;;;;5.55;77.24;101400.75;10105123;29;20053;-78
2022/10/09 05:12:51;;;;;;;15.65;8.68;;;;;;;5.48;77.18;101392.13;10105375;29;20064;-78
2022/10/09 05:17:55;;;;;;;18.75;8.63;;;;;;;5.39;77.52;101386.34;10091138;29;20147;-79
2022/10/09 05:22:58;;;;;;;17.90;10.93;;;;;;;5.42;77.65;101383.53;10089253;29;20584;-78
2022/10/09 05:28:01;;;;;;;20.85;11.00;;;;;;;5.43;78.11;101394.16;10085159;29;20061;-78
2022/10/09 05:33:05;;;;;;;24.92;11.95;;;;;;;5.82;79.58;101397.78;10093276;29;20088;-78
2022/10/09 05:38:08;;;;;;;25.02;10.98;;;;;;;6.37;79.13;101395.22;10095211;29;20049;-78
2022/10/09 05:43:11;;;;;;;11.05;4.18;;;;;;;6.53;77.87;101398.03;10110122;29;20049;-78
2022/10/09 05:48:15;;;;;;;;;;;;;;;6.67;76.75;101406.25;10115665;29;20048;-79
2022/10/09 05:53:18;;;;;;;10.75;6.63;;;;;;;6.53;75.52;101403.38;10116846;29;19998;-78
2022/10/09 05:58:20;;;;;;;;;;;;;;;6.33;75.10;101409.66;10093711;29;20048;-79
2022/10/09 06:03:24;;;;;;;15.77;7.65;;;;;;;6.20;75.23;101408.47;10093112;29;20539;-79
2022/10/09 06:08:28;;;;;;;16.90;9.52;;;;;;;6.18;75.75;101398.75;10094612;29;20063;-78
2022/10/09 06:13:30;;;;;;;15.77;8.93;;;;;;;6.37;75.84;101404.09;10089831;29;20057;-77
2022/10/09 06:18:34;;;;;;;;;;;;;;;6.51;75.20;101405.25;10102675;29;20044;-78
2022/10/09 06:23:37;;;;;;;12.73;8.55;;;;;;;6.82;74.66;101407.28;10091878;29;20400;-79
2022/10/09 06:28:41;;;;;;;14.18;7.72;;;;;;;7.09;73.53;101407.78;10094411;29;20056;-79
2022/10/09 06:33:46;;;;;;;14.18;7.88;;;;;;;7.38;72.95;101405.44;10088857;29;20499;-79
2022/10/09 06:38:50;;;;;;;14.95;7.97;;;;;;;7.71;71.96;101417.03;10081573;29;20077;-79
2022/10/09 06:43:54;;;;;;;9.32;7.03;;;;;;;7.76;70.56;101413.25;10085212;29;20056;-78
2022/10/09 06:48:58;;;;;;;12.75;8.35;;;;;;;7.73;70.97;101414.25;10074186;29;20053;-78
2022/10/09 06:54:03;;;;;;;14.00;8.00;;;;;;;8.04;70.71;101421.53;10082275;29;20047;-79
2022/10/09 06:59:07;;;;;;;15.73;7.90;;;;;;;8.29;69.66;101426.41;10115254;29;20072;-79
2022/10/09 07:04:13;;;;;;;14.15;6.82;;;;;;;8.74;68.94;101423.97;10094841;29;20052;-79
2022/10/09 07:09:16;;;;;;;14.23;7.88;;;;;;;9.05;67.90;101431.97;10090235;29;20061;-79
2022/10/09 07:14:19;;;;;;;10.35;7.93;;;;;;;8.92;67.31;101438.13;10094031;29;20063;-79
2022/10/09 07:19:23;;;;;;;12.27;8.70;;;;;;;9.03;68.13;101433.88;10092192;29;20067;-79
2022/10/09 07:24:26;;;;;;;17.13;9.85;;;;;;;9.20;67.56;101442.75;10074263;29;20057;-80
2022/10/09 07:29:29;;;;;;;19.65;10.98;;;;;;;9.42;67.21;101434.31;10086092;29;20048;-79
2022/10/09 07:34:33;;;;;;;24.67;11.60;;;;;;;9.63;66.44;101432.16;10064536;29;20064;-79
2022/10/09 07:39:36;;;;;;;22.80;12.13;;;;;;;9.95;66.68;101435.56;10103304;29;20048;-78
2022/10/09 07:44:44;;;;;;;16.52;11.13;;;;;;;10.04;65.40;101426.97;10054813;29;20060;-80
2022/10/09 07:49:48;;;;;;;15.02;11.15;;;;;;;10.47;65.04;101431.44;10074857;29;20059;-80
2022/10/09 07:54:51;;;;;;;14.73;10.73;;;;;;;10.94;64.12;101428.34;10078238;29;20107;-79
2022/10/09 07:59:54;;;;;;;16.75;8.77;;;;;;;11.41;63.08;101426.13;10082893;29;20052;-80
2022/10/09 08:04:58;;;;;;;13.00;8.02;;;;;;;11.60;62.89;101428.44;10082621;29;20057;-79
2022/10/09 08:10:01;;;;;;;12.88;7.55;;;;;;;11.88;62.11;101422.88;10087316;29;20045;-80
2022/10/09 08:15:04;;;;;;;10.05;6.47;;;;;;;12.24;61.05;101428.44;10092878;29;20077;-79
2022/10/09 08:20:09;;;;;;;10.23;6.80;;;;;;;12.47;60.60;101424.13;10098066;29;20055;-78
2022/10/09 08:25:12;;;;;;;12.57;6.70;;;;;;;12.85;59.03;101415.06;10098023;29;20080;-81
2022/10/09 08:30:15;;;;;;;;;;;;;;;13.31;58.94;101423.25;10103744;29;20045;-80
2022/10/09 08:35:19;;;;;;;20.70;7.97;;;;;;;13.41;57.28;101416.19;10096834;29;20058;-81
2022/10/09 08:40:33;;;;;;;13.65;7.13;;;;;;;13.60;57.49;101417.47;10108874;29;20125;-80
2022/10/09 08:45:39;;;;;;;14.98;7.80;;;;;;;13.25;57.92;101411.06;10112898;29;20723;-80
2022/10/09 08:50:47;;;;;;;11.27;6.90;;;;;;;13.56;57.76;101408.75;10100249;29;20119;-80
2022/10/09 08:55:53;;;;;;;13.43;6.75;;;;;;;14.13;57.28;101407.84;10099972;29;20146;-81
2022/10/09 09:01:02;;;;;;;9.90;6.75;;;;;;;14.09;56.59;101400.94;10100470;29;20045;-79
2022/10/09 09:06:12;;;;;;;10.90;6.00;;;;;;;14.72;56.00;101393.16;10113141;29;20072;-79
2022/10/09 09:11:24;;;;;;;7.97;5.60;;;;;;;15.15;55.48;101391.44;10096201;29;20057;-80
2022/10/09 09:16:34;;;;;;;12.45;5.32;;;;;;;15.39;53.66;101392.09;10102644;29;20087;-79
2022/10/09 09:21:48;;;;;;;7.32;5.35;;;;;;;15.37;53.54;101385.94;10097340;29;20048;-79
2022/10/09 09:26:55;;;;;;;9.68;6.10;;;;;;;15.55;53.16;101382.63;10092185;29;20759;-79
2022/10/09 09:32:00;;;;;;;10.02;5.30;;;;;;;15.82;54.02;101374.78;10109021;29;20128;-81
2022/10/09 09:37:05;;;;;;;6.75;4.35;;;;;;;16.13;52.44;101369.41;10104463;29;20048;-79
2022/10/09 09:42:14;;;;;;;10.52;4.60;;;;;;;16.41;52.00;101366.94;10105636;29;20056;-80
2022/10/09 09:47:23;;;;;;;10.25;4.35;;;;;;;16.61;50.21;101363.25;10104602;29;20582;-79
2022/10/09 09:52:31;;;;;;;9.10;3.83;;;;;;;16.51;50.66;101347.00;10105669;29;20911;-80
2022/10/09 09:57:37;;;;;;;10.10;4.35;;;;;;;16.69;51.01;101338.16;10102925;29;20122;-78
2022/10/09 10:02:40;;;;;;;9.75;4.65;;;;;;;16.27;50.84;101346.50;10079417;29;20064;-79
2022/10/09 10:07:44;;;;;;;8.85;4.53;;;;;;;16.95;50.01;101320.31;10080281;29;20116;-78
2022/10/09 10:12:54;;;;;;;8.52;4.38;;;;;;;17.01;50.13;101318.88;10095215;29;21287;-79
2022/10/09 10:18:01;;;;;;;9.05;3.83;;;;;;;17.39;49.02;101317.16;10081246;29;20052;-79
2022/10/09 10:23:06;;;;;;;11.55;4.63;;;;;;;17.73;47.95;101312.03;10070870;29;20389;-80
2022/10/09 10:28:16;;;;;;;8.70;3.53;;;;;;;18.28;47.61;101313.94;10066064;29;20048;-80
2022/10/09 10:33:22;;;;;;;7.82;3.60;;;;;;;18.83;46.57;101305.69;10055635;29;20562;-79
2022/10/09 10:38:32;;;;;;;10.05;3.40;;;;;;;19.66;44.95;101306.19;10057860;29;20049;-78
2022/10/09 10:43:41;;;;;;;13.38;3.15;;;;;;;20.56;42.45;101283.84;10086179;29;20103;-78
2022/10/09 10:48:46;;;;;;;6.55;3.00;;;;;;;21.52;40.45;101280.41;10057335;29;20427;-81
2022/10/09 10:54:03;;;;;;;7.43;2.72;;;;;;;20.52;42.16;101279.75;10053854;29;20052;-80
2022/10/09 10:59:25;;;;;;;8.23;2.80;;;;;;;20.19;42.81;101276.06;10079065;29;20052;-80
2022/10/09 11:04:40;;;;;;;10.05;2.58;;;;;;;21.61;39.82;101265.72;10067762;29;21058;-80
2022/10/09 11:09:55;;;;;;;5.53;1.60;;;;;;;22.04;37.65;101248.97;10090814;29;20628;-79
2022/10/09 11:15:09;;;;;;;4.78;1.33;;;;;;;22.07;34.90;101243.13;10084979;29;20730;-79
2022/10/09 11:20:34;;;;;;;5.90;1.30;;;;;;;22.07;34.65;101243.97;10081387;29;20531;-78
2022/10/09 11:25:43;;;;;;;5.28;1.33;;;;;;;22.00;32.83;101240.28;10086908;29;20057;-78
2022/10/09 11:30:54;;;;;;;6.72;2.22;;;;;;;20.64;35.69;101225.69;10081005;29;20568;-78
2022/10/09 11:36:02;;;;;;;5.43;1.33;;;;;;;21.23;35.26;101216.28;10056399;29;20041;-78
2022/10/09 11:41:07;;;;;;;4.72;1.50;;;;;;;22.10;34.40;101199.00;10067236;29;20045;-79
2022/10/09 11:46:18;;;;;;;4.10;1.25;;;;;;;20.95;35.50;101199.41;10069276;29;20091;-79
2022/10/09 11:51:29;;;;;;;3.38;1.20;;;;;;;20.72;34.37;101185.59;10079340;29;20068;-78
2022/10/09 11:56:33;;;;;;;5.57;1.38;;;;;;;21.16;33.60;101185.22;10056282;29;20101;-77
2022/10/09 12:01:39;;;;;;;5.28;2.00;;;;;;;21.33;33.47;101169.59;10094822;29;20468;-80
2022/10/09 12:06:46;;;;;;;4.53;1.00;;;;;;;21.40;32.97;101167.88;10069155;29;20724;-80
2022/10/09 12:12:02;;;;;;;7.57;2.08;;;;;;;20.75;34.10;101162.56;10055150;29;20431;-80
2022/10/09 12:17:15;;;;;;;2.58;1.00;;;;;;;20.75;33.68;101144.28;10079696;29;20049;-80
2022/10/09 12:22:23;;;;;;;1.67;1.00;;;;;;;21.02;33.15;101134.00;10085013;29;20064;-80
2022/10/09 12:27:31;;;;;;;1.88;0.70;;;;;;;20.31;33.40;101125.56;10085407;29;21230;-80
2022/10/09 12:32:38;;;;;;;4.35;1.25;;;;;;;20.65;33.19;101121.81;10101876;29;20430;-80
2022/10/09 12:37:40;;;;;;;3.88;0.90;;;;;;;21.58;31.35;101115.69;10099860;29;20081;-80
2022/10/09 12:42:45;;;;;;;1.85;0.75;;;;;;;23.48;29.73;101107.47;10084973;29;20067;-81
2022/10/09 12:47:49;;;;;;;4.75;1.02;;;;;;;23.77;29.00;101091.00;10094416;29;20143;-80
2022/10/09 12:52:54;;;;;;;3.97;0.95;;;;;;;25.28;27.42;101077.81;10083173;29;20064;-77
2022/10/09 12:58:02;;;;;;;8.50;1.10;;;;;;;24.74;27.65;101073.91;10068202;29;20060;-80
2022/10/09 13:03:06;;;;;;;4.30;0.88;;;;;;;24.92;28.21;101065.13;10080597;29;20059;-79
2022/10/09 13:08:23;;;;;;;2.75;1.40;;;;;;;25.75;27.12;101053.22;10091402;29;20427;-80
2022/10/09 13:13:28;;;;;;;2.75;0.85;;;;;;;27.20;25.97;101051.44;10054444;29;20066;-81
2022/10/09 13:18:31;;;;;;;4.43;0.90;;;;;;;24.59;28.26;101047.63;10087429;29;20063;-80
2022/10/09 13:23:35;;;;;;;3.20;0.80;;;;;;;24.94;27.63;101041.06;10069266;29;20057;-80
2022/10/09 13:28:40;;;;;;;5.38;1.20;;;;;;;24.54;28.13;101026.22;10097457;29;20759;-80
2022/10/09 13:33:43;;;;;;;7.15;1.20;;;;;;;24.53;27.53;101019.91;10081221;29;20072;-80
2022/10/09 13:38:46;;;;;;;1.98;0.80;;;;;;;24.66;27.64;101018.31;10073609;29;20056;-80
2022/10/09 13:43:52;;;;;;;3.17;1.25;;;;;;;24.44;27.64;101015.63;10062173;29;20041;-80
2022/10/09 13:48:55;;;;;;;1.13;0.80;;;;;;;23.99;27.90;101011.44;10097331;29;20080;-80
2022/10/09 13:53:58;;;;;;;2.05;0.88;;;;;;;23.71;28.40;101005.88;10031250;29;20585;-80
2022/10/09 13:59:02;;;;;;;4.38;1.00;;;;;;;24.53;28.43;101000.69;10065315;29;20052;-81
2022/10/09 14:04:05;;;;;;;3.60;1.20;;;;;;;24.69;27.44;100993.16;10078131;29;20060;-80
2022/10/09 14:09:08;;;;;;;2.60;0.90;;;;;;;23.56;28.02;100983.97;10100213;29;20135;-81
2022/10/09 14:14:13;;;;;;;3.53;1.13;;;;;;;23.71;28.21;100968.31;10079323;29;20052;-81
2022/10/09 14:19:15;;;;;;;2.17;0.90;;;;;;;23.28;29.13;100968.31;10085251;29;20060;-80
2022/10/09 14:24:18;;;;;;;2.72;1.20;;;;;;;22.73;31.06;100956.88;10102208;29;20059;-80
2022/10/09 14:29:22;;;;;;;4.53;1.40;;;;;;;21.77;32.60;100952.25;10066019;29;20057;-81
2022/10/09 14:34:25;;;;;;;4.35;1.40;;;;;;;21.43;33.08;100945.31;10089863;29;20055;-80
2022/10/09 14:39:28;;;;;;;5.55;1.67;;;;;;;21.20;33.71;100937.09;10093448;29;20732;-80
2022/10/09 14:44:32;;;;;;;5.25;1.20;;;;;;;20.28;34.99;100917.72;10096108;29;20053;-80
2022/10/09 14:49:35;;;;;;;1.85;1.10;;;;;;;19.78;35.59;100916.97;10086790;29;20103;-80
2022/10/09 14:54:38;;;;;;;15.45;7.28;;;;;;;19.55;36.40;100911.28;10091771;29;20672;-80
2022/10/09 14:59:42;;;;;;;7.85;1.58;;;;;;;19.20;37.12;100904.31;10096534;29;20056;-83
2022/10/09 15:04:45;;;;;;;8.88;4.20;;;;;;;19.11;37.51;100905.31;10094443;29;20469;-82
2022/10/09 15:09:48;;;;;;;3.72;1.65;;;;;;;19.55;37.47;100894.94;10090849;29;20396;-78
2022/10/09 15:14:52;;;;;;;2.88;1.33;;;;;;;18.99;37.89;100892.03;10084790;29;20065;-79
2022/10/09 15:19:55;;;;;;;2.35;1.30;;;;;;;18.96;37.84;100894.25;10065712;29;20052;-80
2022/10/09 15:24:57;;;;;;;3.72;0.90;;;;;;;18.71;37.84;100885.97;10093842;29;20103;-80
2022/10/09 15:30:02;;;;;;;4.75;2.00;;;;;;;18.78;38.16;100878.88;10055185;29;20067;-78
2022/10/09 15:35:06;;;;;;;3.70;1.73;;;;;;;18.06;38.64;100872.94;10079166;29;20064;-78
2022/10/09 15:40:10;;;;;;;4.38;2.22;;;;;;;17.47;39.86;100861.00;10085264;29;20067;-79
2022/10/09 15:45:14;;;;;;;2.08;1.45;;;;;;;17.42;40.24;100863.31;10068465;29;20081;-79
2022/10/09 15:50:17;;;;;;;12.48;6.63;;;;;;;17.51;39.76;100856.09;10087521;29;21216;-78
2022/10/09 15:55:20;;;;;;;3.67;1.48;;;;;;;17.06;40.74;100859.72;10085911;29;20044;-78
2022/10/09 16:00:24;;;;;;;12.98;7.97;;;;;;;17.06;41.03;100848.88;10093079;29;20074;-81
2022/10/09 16:05:27;;;;;;;2.53;1.50;;;;;;;17.04;41.67;100840.91;10083299;29;20499;-80
2022/10/09 16:10:29;;;;;;;2.55;1.38;;;;;;;17.06;42.57;100843.44;10082999;29;20060;-78
2022/10/09 16:15:34;;;;;;;5.30;1.50;;;;;;;16.77;43.33;100836.41;10076316;29;20426;-80
2022/10/09 16:20:37;;;;;;;3.00;1.50;;;;;;;16.17;44.71;100825.19;10079594;29;21190;-78
2022/10/09 16:25:41;;;;;;;7.60;2.92;;;;;;;15.71;45.93;100825.06;10081049;29;20068;-79
2022/10/09 16:30:45;;;;;;;5.63;3.08;;;;;;;15.30;47.20;100818.13;10083140;29;21169;-81
2022/10/09 16:35:48;;;;;;;9.07;4.22;;;;;;;14.80;48.43;100821.88;10060803;29;20096;-81
2022/10/09 16:40:51;;;;;;;6.28;2.40;;;;;;;14.65;48.73;100816.03;10036195;29;20061;-80
2022/10/09 16:46:17;;;;;;;4.43;1.65;;;;;;;14.41;49.64;100811.00;10033249;29;20060;-79
2022/10/09 16:51:23;;;;;;;4.70;1.70;;;;;;;14.21;49.77;100812.78;10026710;29;20576;-79
2022/10/09 16:56:27;;;;;;;6.13;1.40;;;;;;;14.05;50.02;100813.28;10030688;29;20057;-80
2022/10/09 17:01:34;;;;;;;2.85;1.70;;;;;;;13.88;50.65;100814.78;10044676;29;20053;-81
2022/10/09 17:06:39;;;;;;;4.82;2.28;;;;;;;13.73;50.91;100805.31;10049231;29;20427;-81
2022/10/09 17:11:42;;;;;;;5.90;2.58;;;;;;;13.62;51.53;100810.81;10049632;29;20379;-79
2022/10/09 17:16:46;;;;;;;5.68;2.35;;;;;;;13.44;52.12;100806.03;10028652;29;20065;-80
2022/10/09 17:21:49;;;;;;;3.33;2.22;;;;;;;13.35;52.10;100798.69;10053478;29;20049;-82
2022/10/09 17:26:52;;;;;;;19.85;10.48;;;;;;;13.23;52.72;100794.34;10063975;29;20087;-78
2022/10/09 17:31:57;;;;;;;6.38;3.63;;;;;;;13.03;53.08;100796.91;10061874;29;20048;-78
2022/10/09 17:36:59;;;;;;;6.38;3.92;;;;;;;12.91;53.56;100800.63;10059451;29;20049;-78
2022/10/09 17:42:02;;;;;;;7.50;3.38;;;;;;;12.75;53.82;100794.81;10051181;29;20096;-77
2022/10/09 17:47:07;;;;;;;9.45;4.20;;;;;;;12.67;53.81;100792.78;10053313;29;20057;-78
2022/10/09 17:52:10;;;;;;;6.70;4.82;;;;;;;12.59;53.96;100793.41;10050994;29;20068;-78
2022/10/09 17:57:13;;;;;;;9.82;5.75;;;;;;;12.52;54.22;100791.34;10046877;29;20060;-78
2022/10/09 18:02:17;;;;;;;10.23;3.45;;;;;;;12.42;54.18;100793.09;10047484;29;20566;-78
2022/10/09 18:07:20;;;;;;;7.15;2.60;;;;;;;12.32;54.42;100785.78;10020827;29;20167;-79
2022/10/09 18:12:22;;;;;;;6.95;3.70;;;;;;;12.21;54.83;100780.38;10033365;29;20092;-79
2022/10/09 18:17:29;;;;;;;6.05;3.33;;;;;;;12.03;55.33;100774.66;10033628;29;20053;-78
2022/10/09 18:22:32;;;;;;;3.65;2.13;;;;;;;12.00;55.32;100779.44;10040725;29;20064;-80
2022/10/09 18:27:34;;;;;;;7.05;2.78;;;;;;;11.88;55.80;100782.13;10040772;29;20053;-79
2022/10/09 18:32:39;;;;;;;6.50;2.78;;;;;;;11.86;55.78;100769.78;10057342;29;20077;-79
2022/10/09 18:37:41;;;;;;;5.18;2.50;;;;;;;11.77;56.16;100768.69;10054009;29;20135;-80
2022/10/09 18:42:44;;;;;;;;;;;;;;;11.67;56.27;100762.31;10029312;29;20064;-78
2022/10/09 18:47:49;;;;;;;9.75;3.63;;;;;;;11.59;56.62;100754.00;10087124;29;19932;-79
2022/10/09 18:52:53;;;;;;;8.32;4.20;;;;;;;11.49;56.79;100748.47;10078198;29;20075;-80
2022/10/09 18:57:56;;;;;;;7.68;3.58;;;;;;;11.37;57.23;100734.19;10043600;29;20061;-79
2022/10/09 19:03:00;;;;;;;5.57;2.53;;;;;;;11.21;57.66;100734.50;10041454;29;20549;-79
2022/10/09 19:08:03;;;;;;;5.05;2.92;;;;;;;11.13;57.88;100728.03;10038798;29;20060;-78
2022/10/09 19:13:06;;;;;;;4.15;1.98;;;;;;;11.10;58.15;100721.03;10053595;29;20060;-79
2022/10/09 19:18:10;;;;;;;5.93;2.25;;;;;;;11.03;58.40;100725.19;10044774;29;20045;-79
2022/10/09 19:23:14;;;;;;;4.03;1.90;;;;;;;10.87;58.61;100720.13;10053806;29;20053;-79
2022/10/09 19:28:18;;;;;;;4.50;1.60;;;;;;;10.90;58.61;100713.66;10033882;29;20050;-79
2022/10/09 19:33:22;;;;;;;4.18;1.85;;;;;;;10.86;58.64;100713.06;10050188;29;20061;-79
2022/10/09 19:38:26;;;;;;;3.35;1.58;;;;;;;10.73;58.79;100714.97;10049277;29;20131;-79
2022/10/09 19:43:30;;;;;;;4.68;2.35;;;;;;;10.73;58.84;100710.44;10060726;29;20092;-79
2022/10/09 19:48:35;;;;;;;2.97;2.00;;;;;;;10.57;59.10;100702.69;10046246;29;20661;-78
2022/10/09 19:53:38;;;;;;;3.83;2.25;;;;;;;10.63;59.11;100703.19;10048558;29;20053;-78
2022/10/09 19:58:41;;;;;;;4.57;2.10;;;;;;;10.49;59.29;100694.34;10040912;29;20053;-80
2022/10/09 20:03:46;;;;;;;5.97;2.20;;;;;;;10.41;59.48;100686.03;10038336;29;20075;-78
2022/10/09 20:08:49;;;;;;;9.25;3.33;;;;;;;10.35;59.62;100681.97;10043064;29;20057;-80
2022/10/09 20:13:52;;;;;;;6.53;2.45;;;;;;;10.29;59.78;100681.59;10049972;29;20508;-80
2022/10/09 20:19:00;;;;;;;5.90;2.38;;;;;;;10.16;60.18;100689.69;10053618;29;20601;-79
2022/10/09 20:24:02;;;;;;;5.22;2.60;;;;;;;10.22;60.07;100688.38;10045385;29;20193;-78
2022/10/09 20:29:05;;;;;;;;;;;;;;;10.20;60.06;100688.47;10040947;29;21002;-79
2022/10/09 20:34:09;;;;;;;;;;;;;;;10.32;59.69;100684.03;10041585;29;19928;-77
2022/10/09 20:39:14;;;;;;;17.27;2.72;;;;;;;10.25;59.94;100678.25;10058387;29;20389;-79
2022/10/09 20:44:17;;;;;;;4.80;2.08;;;;;;;10.17;60.18;100678.84;10041409;29;20144;-78
2022/10/09 20:49:21;;;;;;;;;;;;;;;10.12;60.34;100672.97;10038493;29;20193;-78
2022/10/09 20:54:23;;;;;;;4.78;1.88;;;;;;;10.05;60.54;100666.34;10051600;29;19934;-79
2022/10/09 20:59:26;;;;;;;5.65;2.40;;;;;;;10.00;60.60;100656.91;10035995;29;20130;-80
2022/10/09 21:04:31;;;;;;;;;;;;;;;9.90;60.87;100659.41;10047475;29;20053;-78
2022/10/09 21:09:33;;;;;;;5.22;2.08;;;;;;;9.78;61.43;100650.41;10047258;29;20056;-79
2022/10/09 21:14:36;;;;;;;4.85;2.10;;;;;;;9.71;61.44;100647.34;10046925;29;20128;-80
2022/10/09 21:19:40;;;;;;;4.82;2.20;;;;;;;9.71;61.47;100638.44;10038030;29;20538;-80
2022/10/09 21:24:44;;;;;;;6.25;2.30;;;;;;;9.71;61.48;100636.59;10043866;29;20515;-79
2022/10/09 21:29:47;;;;;;;3.97;2.40;;;;;;;9.64;61.82;100639.84;10038820;29;21356;-79
2022/10/09 21:34:51;;;;;;;3.90;2.00;;;;;;;9.58;61.93;100640.31;10030858;29;20067;-79
2022/10/09 21:39:54;;;;;;;9.85;2.13;;;;;;;9.55;61.85;100637.84;10039837;29;20041;-79
2022/10/09 21:44:56;;;;;;;;;;;;;;;9.46;62.17;100628.63;10042607;29;20083;-78
2022/10/09 21:50:00;;;;;;;4.15;1.90;;;;;;;9.42;62.12;100624.47;10039295;29;20023;-78
2022/10/09 21:55:03;;;;;;;5.97;2.55;;;;;;;9.28;62.63;100614.72;10058565;29;20053;-78
2022/10/09 22:00:08;;;;;;;7.13;2.00;;;;;;;9.23;62.67;100619.56;10039194;29;20139;-78
2022/10/09 22:05:12;;;;;;;6.78;2.28;;;;;;;9.12;62.98;100611.44;10057781;29;20059;-79
2022/10/09 22:10:15;;;;;;;7.00;2.42;;;;;;;9.10;63.31;100605.31;10048527;29;20060;-78
2022/10/09 22:15:18;;;;;;;5.13;2.78;;;;;;;9.02;63.44;100601.38;10060499;29;20049;-79
2022/10/09 22:20:22;;;;;;;7.68;2.28;;;;;;;8.99;63.50;100588.19;10046541;29;20056;-79
2022/10/09 22:25:25;;;;;;;3.53;2.10;;;;;;;8.94;63.72;100587.69;10035753;29;20542;-79
2022/10/09 22:30:28;;;;;;;;;;;;;;;8.90;63.65;100577.28;10049212;29;20279;-78
2022/10/09 22:35:32;;;;;;;7.20;2.22;;;;;;;8.85;63.98;100582.94;10037089;29;19928;-78
2022/10/09 22:40:35;;;;;;;9.13;2.85;;;;;;;8.83;64.01;100572.38;10052874;29;20107;-78
2022/10/09 22:45:38;;;;;;;4.38;2.03;;;;;;;8.83;63.83;100568.78;10036269;29;20061;-78
2022/10/09 22:50:42;;;;;;;8.98;4.20;;;;;;;8.81;64.01;100566.25;10042384;29;20061;-79
2022/10/09 22:55:45;;;;;;;4.30;2.20;;;;;;;8.81;63.97;100568.06;10044575;29;20053;-78
2022/10/09 23:00:48;;;;;;;;;;;;;;;8.76;64.10;100563.03;10050933;29;20050;-79
2022/10/09 23:05:52;;;;;;;7.13;1.90;;;;;;;8.75;64.27;100558.66;10038296;29;20300;-79
2022/10/09 23:10:55;;;;;;;4.85;1.95;;;;;;;8.76;64.09;100552.31;10032662;29;20057;-78
2022/10/09 23:15:59;;;;;;;;;;;;;;;8.74;64.20;100551.56;10040534;29;20061;-78
2022/10/09 23:21:05;;;;;;;5.20;2.30;;;;;;;8.74;64.20;100542.69;10021546;29;20341;-78
2022/10/09 23:26:09;;;;;;;6.32;1.95;;;;;;;8.63;63.85;100535.41;10033252;29;20704;-78
2022/10/09 23:31:14;;;;;;;4.55;1.90;;;;;;;8.55;64.40;100527.03;10047365;29;20053;-79